Time;durP1;ratioP1;P1;durP2;ratioP2;P2;SDS_P1;SDS_P2;PMS_P1;PMS_P2;Temp;Humidity;BMP_temperature;BMP_pressure;BME280_temperature;BME280_humidity;BME280_pressure;Samples;Min_cycle;Max_cycle;Signal;HPM_P1;HPM_P2
2023/03/04 05:01:30;;;;;;;5.78;0.43;;;5.90;99.90;;;;;;5417584;23;20283;-68
2023/03/04 05:03:57;;;;;;;0.22;0.22;;;5.90;99.90;;;;;;4928438;29;20206;-70
2023/03/04 05:06:24;;;;;;;4.78;0.57;;;5.90;99.90;;;;;;4922587;29;20206;-70
2023/03/04 05:08:51;;;;;;;3.50;0.30;;;5.90;99.90;;;;;;4930562;29;20214;-69
2023/03/04 05:11:19;;;;;;;2.17;0.77;;;5.90;99.90;;;;;;4925905;29;20229;-68
2023/03/04 05:13:47;;;;;;;0.10;0.10;;;5.90;99.90;;;;;;4920855;29;20218;-70
2023/03/04 05:16:14;;;;;;;0.20;0.20;;;6.00;99.90;;;;;;4918464;29;20209;-69
2023/03/04 05:18:42;;;;;;;0.73;0.60;;;6.00;99.90;;;;;;4907943;29;20230;-68
2023/03/04 05:21:09;;;;;;;5.03;1.35;;;6.00;99.90;;;;;;4921040;29;20235;-68
2023/03/04 05:23:37;;;;;;;0.20;0.20;;;6.00;99.90;;;;;;4914008;29;20211;-68
2023/03/04 05:26:06;;;;;;;0.80;0.32;;;6.00;99.90;;;;;;4914368;29;20206;-67
2023/03/04 05:28:32;;;;;;;0.63;0.63;;;6.00;99.90;;;;;;4908869;29;20211;-67
2023/03/04 05:30:59;;;;;;;9.38;1.15;;;6.00;99.90;;;;;;4906937;29;20235;-68
2023/03/04 05:33:27;;;;;;;0.65;0.65;;;6.00;99.90;;;;;;4919099;29;20206;-67
2023/03/04 05:35:55;;;;;;;1.05;0.20;;;5.90;99.90;;;;;;4908518;29;20218;-68
2023/03/04 05:38:23;;;;;;;0.30;0.30;;;5.90;99.90;;;;;;4917192;29;20269;-68
2023/03/04 05:40:55;;;;;;;2.83;1.30;;;5.90;99.90;;;;;;4918568;29;20233;-70
2023/03/04 05:43:22;;;;;;;0.20;0.20;;;5.90;99.90;;;;;;4919002;29;20325;-69
2023/03/04 05:45:49;;;;;;;9.98;0.93;;;5.90;99.90;;;;;;4904631;29;20278;-68
2023/03/04 05:48:16;;;;;;;1.38;1.05;;;5.90;99.90;;;;;;4919111;29;20215;-68
2023/03/04 05:50:42;;;;;;;1.55;0.95;;;5.90;99.90;;;;;;4915834;29;20241;-67
2023/03/04 05:53:11;;;;;;;0.20;0.20;;;5.80;99.90;;;;;;4908377;29;20209;-68
2023/03/04 05:55:37;;;;;;;0.20;0.20;;;5.80;99.90;;;;;;4916288;29;20705;-70
2023/03/04 05:58:04;;;;;;;0.45;0.45;;;5.80;99.90;;;;;;4915176;29;20529;-68
2023/03/04 06:00:31;;;;;;;0.22;0.22;;;5.80;99.90;;;;;;4910285;29;20239;-68
2023/03/04 06:02:58;;;;;;;0.70;0.70;;;5.70;99.90;;;;;;4902354;29;20207;-70
2023/03/04 06:05:24;;;;;;;0.40;0.40;;;5.70;99.90;;;;;;4910417;29;20213;-71
2023/03/04 06:07:51;;;;;;;0.73;0.32;;;5.70;99.90;;;;;;4920952;29;20652;-67
2023/03/04 06:10:19;;;;;;;3.83;0.30;;;5.70;99.90;;;;;;4920713;29;20217;-68
2023/03/04 06:12:46;;;;;;;1.33;1.23;;;5.70;99.90;;;;;;4915967;29;20225;-69
2023/03/04 06:15:13;;;;;;;0.68;0.68;;;5.70;99.90;;;;;;4903644;29;20230;-68
2023/03/04 06:17:41;;;;;;;0.50;0.50;;;5.60;99.90;;;;;;4921621;29;20203;-68
2023/03/04 06:20:10;;;;;;;0.65;0.60;;;5.60;99.90;;;;;;4931108;29;20206;-69
2023/03/04 06:22:37;;;;;;;0.20;0.20;;;5.70;99.90;;;;;;4905155;29;20242;-68
2023/03/04 06:25:04;;;;;;;0.47;0.45;;;5.60;99.90;;;;;;4921730;29;20256;-68
2023/03/04 06:27:32;;;;;;;2.10;0.40;;;5.60;99.90;;;;;;4922402;29;20691;-70
2023/03/04 06:30:00;;;;;;;0.30;0.30;;;5.60;99.90;;;;;;4933437;29;20213;-68
2023/03/04 06:32:27;;;;;;;0.47;0.47;;;5.60;99.90;;;;;;4907031;29;20264;-68
2023/03/04 06:34:54;;;;;;;0.80;0.80;;;5.60;99.90;;;;;;4916767;29;20218;-68
2023/03/04 06:37:20;;;;;;;2.05;0.73;;;5.60;99.90;;;;;;4913753;29;20218;-69
2023/03/04 06:39:47;;;;;;;0.60;0.60;;;5.60;99.90;;;;;;4912725;29;20214;-69
2023/03/04 06:42:14;;;;;;;0.55;0.55;;;5.60;99.90;;;;;;4905465;29;20242;-68
2023/03/04 06:44:42;;;;;;;1.27;0.80;;;5.60;99.90;;;;;;4912575;29;20576;-68
2023/03/04 06:47:09;;;;;;;3.13;1.38;;;5.70;99.90;;;;;;4922118;29;20219;-68
2023/03/04 06:49:36;;;;;;;0.60;0.60;;;5.70;99.90;;;;;;4930522;29;20198;-67
2023/03/04 06:52:03;;;;;;;0.68;0.68;;;5.70;99.90;;;;;;4904844;29;20231;-69
2023/03/04 06:54:30;;;;;;;2.58;0.90;;;5.70;99.90;;;;;;4908371;29;20209;-68
2023/03/04 06:56:56;;;;;;;4.50;0.88;;;5.70;99.90;;;;;;4920843;29;20213;-68
2023/03/04 06:59:23;;;;;;;2.17;1.58;;;5.70;99.90;;;;;;4907617;29;20221;-69
2023/03/04 07:01:51;;;;;;;1.73;1.60;;;5.80;99.90;;;;;;4905897;29;20249;-67
2023/03/04 07:04:18;;;;;;;12.00;0.88;;;5.80;99.90;;;;;;4924949;29;20546;-68
2023/03/04 07:06:45;;;;;;;0.47;0.47;;;5.80;99.90;;;;;;4921869;29;20209;-68
2023/03/04 07:09:11;;;;;;;4.30;3.92;;;5.90;99.90;;;;;;4907555;29;20202;-69
2023/03/04 07:11:38;;;;;;;0.70;0.70;;;5.90;99.90;;;;;;4908684;29;20246;-68
2023/03/04 07:14:05;;;;;;;3.05;0.80;;;5.90;99.90;;;;;;4908213;29;20211;-68
2023/03/04 07:16:32;;;;;;;0.60;0.60;;;5.90;99.90;;;;;;4913100;29;20230;-68
2023/03/04 07:19:00;;;;;;;0.50;0.50;;;5.90;99.90;;;;;;4916903;29;20218;-68
2023/03/04 07:21:27;;;;;;;2.15;1.50;;;5.90;99.90;;;;;;4909279;29;20327;-68
2023/03/04 07:23:54;;;;;;;2.97;1.45;;;6.00;99.90;;;;;;4920991;29;20254;-69
2023/03/04 07:26:21;;;;;;;1.10;1.10;;;6.00;99.90;;;;;;4910369;29;20210;-67
2023/03/04 07:28:47;;;;;;;1.95;0.65;;;6.00;99.90;;;;;;4914157;29;20223;-68
2023/03/04 07:31:21;;;;;;;1.20;1.20;;;6.00;99.90;;;;;;4913201;29;20230;-70
2023/03/04 07:33:48;;;;;;;3.17;1.88;;;6.10;99.90;;;;;;4908911;29;20211;-69
2023/03/04 07:36:17;;;;;;;2.60;2.35;;;6.10;99.90;;;;;;4925314;29;20269;-69
2023/03/04 07:38:44;;;;;;;1.17;0.80;;;6.00;99.90;;;;;;4916583;29;20214;-70
2023/03/04 07:41:12;;;;;;;13.55;2.17;;;6.00;99.90;;;;;;4904852;29;20222;-70
2023/03/04 07:43:39;;;;;;;13.15;0.98;;;6.00;99.90;;;;;;4921227;29;20556;-69
2023/03/04 07:46:06;;;;;;;1.65;0.40;;;6.00;99.90;;;;;;4917104;29;20211;-70
2023/03/04 07:48:33;;;;;;;3.17;1.38;;;6.00;99.90;;;;;;4917738;29;20219;-70
2023/03/04 07:51:04;;;;;;;1.85;1.13;;;6.10;99.90;;;;;;4907664;29;20230;-70
2023/03/04 07:53:33;;;;;;;1.35;1.08;;;6.10;99.90;;;;;;4897030;29;20231;-70
2023/03/04 07:56:00;;;;;;;0.90;0.77;;;6.10;99.90;;;;;;4909745;29;20218;-69
2023/03/04 07:58:27;;;;;;;2.50;2.30;;;6.10;99.90;;;;;;4920467;29;20206;-69
2023/03/04 08:00:53;;;;;;;1.45;1.45;;;6.10;99.90;;;;;;4910185;29;20243;-70
2023/03/04 08:03:20;;;;;;;0.85;0.85;;;6.10;99.90;;;;;;4906930;29;20206;-69
2023/03/04 08:05:47;;;;;;;1.20;1.20;;;6.10;99.90;;;;;;4903846;29;20207;-68
2023/03/04 08:08:14;;;;;;;4.45;0.98;;;6.10;99.90;;;;;;4909837;29;20302;-70
2023/03/04 08:10:42;;;;;;;4.43;2.08;;;6.00;99.90;;;;;;4907180;29;20314;-70
2023/03/04 08:13:09;;;;;;;1.77;1.15;;;6.00;99.90;;;;;;4904037;29;20245;-70
2023/03/04 08:15:40;;;;;;;3.70;0.75;;;6.00;99.90;;;;;;4915852;29;20217;-71
2023/03/04 08:18:07;;;;;;;1.65;1.45;;;6.00;99.90;;;;;;4911584;29;20211;-71
2023/03/04 08:20:34;;;;;;;6.05;1.17;;;6.00;99.90;;;;;;4901851;29;20235;-71
2023/03/04 08:23:00;;;;;;;0.88;0.35;;;6.00;99.90;;;;;;4918705;29;20203;-70
2023/03/04 08:25:27;;;;;;;5.65;1.77;;;6.00;99.90;;;;;;4922743;29;20206;-70
2023/03/04 08:27:55;;;;;;;0.65;0.65;;;6.00;99.90;;;;;;4910677;29;20215;-69
2023/03/04 08:30:22;;;;;;;0.55;0.55;;;6.00;99.90;;;;;;4909176;29;20198;-71
2023/03/04 08:32:49;;;;;;;1.48;1.05;;;6.00;99.90;;;;;;4913030;29;20254;-70
2023/03/04 08:35:16;;;;;;;10.65;1.70;;;6.00;99.90;;;;;;4904117;29;20234;-69
2023/03/04 08:37:44;;;;;;;5.75;1.90;;;6.10;99.90;;;;;;4899552;29;20473;-70
2023/03/04 08:40:12;;;;;;;1.00;1.00;;;6.10;99.90;;;;;;4924868;29;20365;-69
2023/03/04 08:42:39;;;;;;;0.60;0.60;;;6.10;99.90;;;;;;4933793;29;20201;-70
2023/03/04 08:45:08;;;;;;;1.08;1.08;;;6.10;99.90;;;;;;4915046;29;20663;-70
2023/03/04 08:47:35;;;;;;;2.13;2.03;;;6.10;99.90;;;;;;4902640;29;20209;-70
2023/03/04 08:50:02;;;;;;;5.03;1.10;;;6.10;99.90;;;;;;4910551;29;20648;-69
2023/03/04 08:52:29;;;;;;;2.05;1.48;;;6.10;99.90;;;;;;4902981;29;20231;-69
2023/03/04 08:54:56;;;;;;;1.10;0.95;;;6.20;99.90;;;;;;4922669;29;20272;-69
2023/03/04 08:57:23;;;;;;;1.10;1.10;;;6.10;99.90;;;;;;4933778;29;20220;-69
2023/03/04 08:59:49;;;;;;;5.18;1.35;;;6.10;99.90;;;;;;4922061;29;20217;-70
2023/03/04 09:02:17;;;;;;;12.82;0.95;;;6.10;99.90;;;;;;4895683;29;20708;-68
2023/03/04 09:04:44;;;;;;;1.10;1.10;;;6.10;99.90;;;;;;4909814;29;20214;-68
2023/03/04 09:07:12;;;;;;;1.52;1.15;;;6.10;99.90;;;;;;4922415;29;20214;-70
2023/03/04 09:09:39;;;;;;;0.20;0.20;;;6.10;99.90;;;;;;4914461;29;20206;-69
2023/03/04 09:12:07;;;;;;;5.07;1.50;;;6.10;99.90;;;;;;4915542;29;20272;-70
2023/03/04 09:14:34;;;;;;;0.50;0.28;;;6.10;99.90;;;;;;4925714;29;20225;-69
2023/03/04 09:17:01;;;;;;;1.55;1.45;;;6.10;99.90;;;;;;4930377;29;20762;-69
2023/03/04 09:19:29;;;;;;;0.80;0.70;;;6.10;99.90;;;;;;4914841;29;20211;-70
2023/03/04 09:21:58;;;;;;;0.95;0.90;;;6.10;99.90;;;;;;4913073;29;20250;-69
2023/03/04 09:24:25;;;;;;;1.13;1.13;;;6.10;99.90;;;;;;4921786;29;20294;-70
2023/03/04 09:26:52;;;;;;;3.80;0.88;;;6.10;99.90;;;;;;4913278;29;20203;-68
2023/03/04 09:29:19;;;;;;;1.00;0.82;;;6.10;99.90;;;;;;4896031;29;20263;-67
2023/03/04 09:31:46;;;;;;;2.28;0.65;;;6.10;99.90;;;;;;4918643;29;20236;-69
2023/03/04 09:34:13;;;;;;;3.70;2.67;;;6.20;99.90;;;;;;4914212;29;20594;-68
2023/03/04 09:36:41;;;;;;;1.73;1.10;;;6.20;99.90;;;;;;4913147;29;20292;-69
2023/03/04 09:39:08;;;;;;;0.80;0.77;;;6.10;99.90;;;;;;4924815;29;20205;-69
2023/03/04 09:41:40;;;;;;;0.73;0.73;;;6.10;99.90;;;;;;4901744;29;20238;-69
2023/03/04 09:44:20;;;;;;;1.90;1.80;;;6.10;99.90;;;;;;4915621;29;20214;-67
2023/03/04 09:46:49;;;;;;;2.50;2.30;;;6.20;99.90;;;;;;4924106;29;20194;-67
2023/03/04 09:49:17;;;;;;;0.70;0.70;;;6.20;99.90;;;;;;4903418;29;20213;-68
2023/03/04 09:51:52;;;;;;;1.65;1.00;;;6.20;99.90;;;;;;4919200;29;20223;-68
2023/03/04 09:54:31;;;;;;;0.32;0.32;;;6.20;99.90;;;;;;4928669;29;20202;-69
2023/03/04 09:57:06;;;;;;;0.30;0.30;;;6.20;99.90;;;;;;4921147;29;20210;-67
2023/03/04 09:59:41;;;;;;;0.80;0.80;;;6.20;99.90;;;;;;4924599;29;20656;-69
2023/03/04 10:02:20;;;;;;;4.43;2.00;;;6.20;99.90;;;;;;4909011;29;20229;-68
2023/03/04 10:04:50;;;;;;;0.88;0.88;;;6.20;99.90;;;;;;4914144;29;20639;-69
2023/03/04 10:07:23;;;;;;;0.43;0.43;;;6.20;99.90;;;;;;4919536;29;20238;-69
2023/03/04 10:09:53;;;;;;;4.85;1.10;;;6.20;99.90;;;;;;4921950;29;20307;-69
2023/03/04 10:12:29;;;;;;;0.77;0.77;;;6.20;99.90;;;;;;4909172;29;20241;-71
2023/03/04 10:15:01;;;;;;;2.08;0.55;;;6.30;99.90;;;;;;4920402;29;20221;-70
2023/03/04 10:17:35;;;;;;;1.95;0.85;;;6.20;99.90;;;;;;4907168;29;20210;-70
2023/03/04 10:20:06;;;;;;;0.60;0.50;;;6.30;99.90;;;;;;4936786;29;20292;-69
2023/03/04 10:22:37;;;;;;;2.90;1.08;;;6.30;99.90;;;;;;4920473;29;20249;-70
2023/03/04 10:25:16;;;;;;;2.08;0.63;;;6.30;99.90;;;;;;4913869;29;20214;-71
2023/03/04 10:27:48;;;;;;;0.70;0.70;;;6.40;99.90;;;;;;4913451;29;20563;-69
2023/03/04 10:30:23;;;;;;;1.30;0.68;;;6.40;99.90;;;;;;4914843;29;20586;-68
2023/03/04 10:32:50;;;;;;;0.55;0.55;;;6.50;99.90;;;;;;4924387;29;20233;-67
2023/03/04 10:35:31;;;;;;;1.33;1.27;;;6.40;99.90;;;;;;4925152;29;20219;-67
2023/03/04 10:38:03;;;;;;;1.30;0.90;;;6.40;99.90;;;;;;4929601;29;20213;-70
2023/03/04 10:40:36;;;;;;;7.32;0.80;;;6.40;99.90;;;;;;4907099;29;20686;-69
2023/03/04 10:43:06;;;;;;;1.75;1.13;;;6.50;99.90;;;;;;4920019;29;20211;-69
2023/03/04 10:45:39;;;;;;;4.10;1.15;;;6.50;99.90;;;;;;4923989;29;20218;-68
2023/03/04 10:48:07;;;;;;;0.30;0.30;;;6.50;99.90;;;;;;4926401;29;20654;-69
2023/03/04 10:50:33;;;;;;;0.40;0.40;;;6.50;99.90;;;;;;4917494;29;20286;-69
2023/03/04 10:53:01;;;;;;;2.92;0.90;;;6.50;99.90;;;;;;4908062;29;20235;-69
2023/03/04 10:55:42;;;;;;;1.27;1.27;;;6.60;99.90;;;;;;4918274;29;20210;-69
2023/03/04 10:58:15;;;;;;;4.25;2.08;;;6.60;99.90;;;;;;4900655;29;20222;-69
2023/03/04 11:00:42;;;;;;;6.63;1.20;;;6.60;99.90;;;;;;4913323;29;20722;-68
2023/03/04 11:03:31;;;;;;;1.38;0.63;;;6.60;99.90;;;;;;4913037;29;20203;-68
2023/03/04 11:06:15;;;;;;;0.20;0.20;;;6.70;99.90;;;;;;4920847;29;20215;-68
2023/03/04 11:08:44;;;;;;;6.88;4.47;;;6.60;99.90;;;;;;4927710;29;20214;-70
2023/03/04 11:11:33;;;;;;;1.38;1.27;;;6.60;99.90;;;;;;4906337;29;20226;-69
2023/03/04 11:14:15;;;;;;;8.40;2.22;;;6.60;99.90;;;;;;4901435;29;20231;-69
2023/03/04 11:16:53;;;;;;;25.40;1.63;;;6.60;99.90;;;;;;4898082;29;20238;-68
2023/03/04 11:19:24;;;;;;;3.47;2.67;;;6.60;99.90;;;;;;4916899;29;20574;-68
2023/03/04 11:21:52;;;;;;;2.22;1.40;;;6.70;99.90;;;;;;4915846;29;20317;-69
2023/03/04 11:24:25;;;;;;;0.35;0.35;;;6.70;99.90;;;;;;4914363;29;20716;-69
2023/03/04 11:26:56;;;;;;;7.82;1.85;;;6.70;99.90;;;;;;4909020;29;20199;-69
2023/03/04 11:29:29;;;;;;;1.15;1.10;;;6.80;99.90;;;;;;4935025;23;20648;-71
2023/03/04 11:32:00;;;;;;;5.90;0.63;;;6.80;99.90;;;;;;4926191;29;20210;-71
2023/03/04 11:34:34;;;;;;;0.98;0.98;;;6.80;99.90;;;;;;4930943;29;20378;-71
2023/03/04 11:37:06;;;;;;;5.10;1.90;;;6.80;99.90;;;;;;4931274;29;20221;-70
2023/03/04 11:39:37;;;;;;;1.20;0.65;;;6.70;99.90;;;;;;4925539;29;20239;-70
2023/03/04 11:42:13;;;;;;;1.95;1.48;;;6.70;99.90;;;;;;4915261;29;20521;-71
2023/03/04 11:44:40;;;;;;;1.13;1.13;;;6.70;99.90;;;;;;4916951;29;20548;-72
2023/03/04 11:47:28;;;;;;;1.85;0.85;;;6.60;99.90;;;;;;4915444;29;20203;-70
2023/03/04 11:50:22;;;;;;;0.57;0.57;;;6.60;99.90;;;;;;4919017;29;20241;-70
2023/03/04 11:53:17;;;;;;;6.40;1.92;;;6.60;99.90;;;;;;4914646;29;20250;-70
2023/03/04 11:55:51;;;;;;;43.80;1.92;;;6.50;99.90;;;;;;4906840;29;20663;-71
2023/03/04 11:58:39;;;;;;;0.80;0.63;;;6.50;99.90;;;;;;4912610;29;20257;-71
2023/03/04 12:01:09;;;;;;;0.65;0.65;;;6.60;99.90;;;;;;4913138;29;20211;-71
2023/03/04 12:04:14;;;;;;;0.85;0.85;;;6.80;99.90;;;;;;4911464;29;20207;-70
2023/03/04 12:06:54;;;;;;;0.38;0.38;;;6.90;99.90;;;;;;4901707;29;20211;-70
2023/03/04 12:09:35;;;;;;;1.25;1.23;;;6.90;99.90;;;;;;4914376;29;20339;-71
2023/03/04 12:12:25;;;;;;;5.88;3.72;;;7.00;99.90;;;;;;4914110;29;20210;-73
2023/03/04 12:15:01;;;;;;;3.33;0.57;;;6.90;99.90;;;;;;4912657;29;20214;-71
2023/03/04 12:17:46;;;;;;;8.55;2.45;;;6.90;99.90;;;;;;4910158;29;20213;-72
2023/03/04 12:20:38;;;;;;;7.43;1.10;;;7.00;99.90;;;;;;4914995;29;20572;-70
2023/03/04 12:23:17;;;;;;;0.40;0.40;;;7.10;99.90;;;;;;4911648;29;20679;-71
2023/03/04 12:25:52;;;;;;;1.27;1.05;;;7.00;99.90;;;;;;4912270;29;20214;-71
2023/03/04 12:28:39;;;;;;;0.65;0.65;;;7.10;99.90;;;;;;4911018;29;20231;-71
2023/03/04 12:31:34;;;;;;;0.82;0.82;;;7.10;99.90;;;;;;4912204;29;20219;-71
2023/03/04 12:34:33;;;;;;;0.30;0.30;;;7.10;99.90;;;;;;4915352;29;20730;-71
2023/03/04 12:37:27;;;;;;;4.88;1.05;;;7.20;99.90;;;;;;4910925;29;20221;-70
2023/03/04 12:40:18;;;;;;;0.10;0.10;;;7.20;99.90;;;;;;4903518;29;20231;-70
2023/03/04 12:42:59;;;;;;;6.80;1.83;;;7.10;99.90;;;;;;4911660;29;20211;-71
2023/03/04 12:45:37;;;;;;;1.42;1.38;;;7.20;99.90;;;;;;4913488;29;20219;-71
2023/03/04 12:48:12;;;;;;;0.85;0.77;;;7.20;99.90;;;;;;4911940;29;20563;-71
2023/03/04 12:50:47;;;;;;;1.50;1.40;;;7.30;99.90;;;;;;4908571;29;20738;-70
2023/03/04 12:53:21;;;;;;;3.38;1.85;;;7.30;99.90;;;;;;4913922;29;20233;-70
2023/03/04 12:55:49;;;;;;;0.80;0.80;;;7.20;99.90;;;;;;4910940;29;20883;-71
2023/03/04 12:58:19;;;;;;;5.88;1.42;;;7.20;99.90;;;;;;4914986;29;20203;-73
2023/03/04 13:00:55;;;;;;;2.17;2.08;;;7.20;99.90;;;;;;4914689;29;20226;-70
2023/03/04 13:03:31;;;;;;;0.73;0.63;;;7.10;99.90;;;;;;4910413;29;20288;-72
2023/03/04 13:06:17;;;;;;;0.20;0.20;;;7.20;99.90;;;;;;4911727;29;20206;-72
2023/03/04 13:08:58;;;;;;;4.90;1.00;;;7.20;99.90;;;;;;4915610;29;20211;-72
2023/03/04 13:11:54;;;;;;;0.55;0.55;;;7.30;99.90;;;;;;4914916;29;20210;-70
2023/03/04 13:14:27;;;;;;;0.88;0.88;;;7.40;99.90;;;;;;4915298;29;20237;-71
2023/03/04 13:16:57;;;;;;;0.63;0.57;;;7.50;99.90;;;;;;4915062;29;20218;-70
2023/03/04 13:19:49;;;;;;;10.65;1.75;;;7.50;99.90;;;;;;4915081;29;20230;-70
2023/03/04 13:22:53;;;;;;;1.23;1.17;;;7.50;99.90;;;;;;4895747;29;20314;-71
2023/03/04 13:25:48;;;;;;;3.35;3.08;;;7.50;99.90;;;;;;4901481;29;20215;-70
2023/03/04 13:28:22;;;;;;;0.95;0.95;;;7.50;99.90;;;;;;4894253;29;20630;-69
2023/03/04 13:31:17;;;;;;;2.42;2.33;;;7.30;99.90;;;;;;4914342;29;20238;-68
2023/03/04 13:34:04;;;;;;;0.45;0.45;;;7.40;99.90;;;;;;4914262;29;20241;-71
2023/03/04 13:36:56;;;;;;;0.20;0.20;;;7.40;99.90;;;;;;4913990;29;20217;-71
2023/03/04 13:39:36;;;;;;;4.80;0.70;;;7.40;99.90;;;;;;4914426;29;20240;-72
2023/03/04 13:42:24;;;;;;;5.00;0.68;;;7.40;99.90;;;;;;4914967;29;20210;-71
2023/03/04 13:45:01;;;;;;;0.50;0.50;;;7.30;99.90;;;;;;4914510;29;20210;-71
2023/03/04 13:47:46;;;;;;;1.00;0.47;;;7.40;99.90;;;;;;4915358;29;20214;-71
2023/03/04 13:50:30;;;;;;;1.40;1.30;;;7.40;99.90;;;;;;4915257;29;20245;-71
2023/03/04 13:53:01;;;;;;;7.60;1.20;;;7.40;99.90;;;;;;4917275;29;20207;-71
2023/03/04 13:55:34;;;;;;;1.15;0.40;;;7.30;99.90;;;;;;4918200;29;20626;-70
2023/03/04 13:58:03;;;;;;;5.13;1.90;;;7.30;99.90;;;;;;4919241;29;20210;-70
2023/03/04 14:00:31;;;;;;;3.03;0.85;;;7.20;99.90;;;;;;4914838;29;20235;-71
2023/03/04 14:03:12;;;;;;;1.17;1.08;;;7.20;99.90;;;;;;4918170;29;20265;-71
2023/03/04 14:05:40;;;;;;;0.82;0.82;;;7.10;99.90;;;;;;4923282;29;20209;-71
2023/03/04 14:08:18;;;;;;;0.30;0.30;;;7.00;99.90;;;;;;4923145;29;20221;-71
2023/03/04 14:10:44;;;;;;;0.55;0.55;;;7.00;99.90;;;;;;4923215;29;20231;-71
2023/03/04 14:13:11;;;;;;;0.55;0.47;;;7.00;99.90;;;;;;4922423;29;20214;-71
2023/03/04 14:15:39;;;;;;;2.28;0.77;;;7.00;99.90;;;;;;4917160;29;20233;-70
2023/03/04 14:18:06;;;;;;;0.63;0.55;;;7.10;99.90;;;;;;4915015;29;20215;-69
2023/03/04 14:20:34;;;;;;;0.75;0.50;;;7.20;99.90;;;;;;4916687;29;20233;-70
2023/03/04 14:23:04;;;;;;;2.97;0.85;;;7.20;99.90;;;;;;4916093;29;20210;-71
2023/03/04 14:25:32;;;;;;;0.55;0.55;;;7.20;99.90;;;;;;4914887;29;20210;-69
2023/03/04 14:28:03;;;;;;;0.95;0.95;;;7.20;99.90;;;;;;4914643;29;20210;-71
2023/03/04 14:30:31;;;;;;;0.52;0.50;;;7.20;99.90;;;;;;4914461;29;20242;-72
2023/03/04 14:33:00;;;;;;;0.40;0.40;;;7.10;99.90;;;;;;4914136;29;20211;-71
2023/03/04 14:35:28;;;;;;;1.38;0.85;;;7.10;99.90;;;;;;4914465;29;20423;-70
2023/03/04 14:38:00;;;;;;;3.50;1.40;;;7.00;99.90;;;;;;4912330;29;20763;-71
2023/03/04 14:40:30;;;;;;;0.30;0.30;;;7.00;99.90;;;;;;4916768;29;20223;-70
2023/03/04 14:43:00;;;;;;;0.60;0.60;;;7.00;99.90;;;;;;4917788;29;20218;-71
2023/03/04 14:45:28;;;;;;;0.40;0.40;;;7.00;99.90;;;;;;4916511;29;20235;-70
2023/03/04 14:48:01;;;;;;;1.08;0.65;;;7.00;99.90;;;;;;4917368;29;20202;-69
2023/03/04 14:50:28;;;;;;;1.70;1.58;;;7.00;99.90;;;;;;4916375;29;20286;-71
2023/03/04 14:53:13;;;;;;;2.90;2.05;;;7.00;99.90;;;;;;4916196;29;20225;-70
2023/03/04 14:55:39;;;;;;;6.30;1.60;;;7.00;99.90;;;;;;4919426;29;20230;-70
2023/03/04 14:58:08;;;;;;;0.52;0.52;;;7.00;99.90;;;;;;4930476;29;20667;-73
2023/03/04 15:00:37;;;;;;;22.58;1.15;;;6.90;99.90;;;;;;4916633;29;20238;-72
2023/03/04 15:03:19;;;;;;;7.03;1.25;;;6.80;99.90;;;;;;4907289;29;20221;-71
2023/03/04 15:05:45;;;;;;;1.52;1.02;;;6.80;99.90;;;;;;4918123;29;20670;-70
2023/03/04 15:08:21;;;;;;;1.67;1.45;;;6.80;99.90;;;;;;4926806;29;20229;-72
2023/03/04 15:10:55;;;;;;;1.15;1.15;;;6.80;99.90;;;;;;4917003;29;20562;-72
2023/03/04 15:13:38;;;;;;;1.23;1.23;;;6.80;99.90;;;;;;4919320;29;20205;-69
2023/03/04 15:16:05;;;;;;;0.50;0.50;;;6.80;99.90;;;;;;4908231;29;20676;-71
2023/03/04 15:18:33;;;;;;;4.32;1.25;;;6.70;99.90;;;;;;4909140;29;20206;-69
2023/03/04 15:21:02;;;;;;;1.85;1.23;;;6.70;99.90;;;;;;4917667;29;20238;-70
2023/03/04 15:23:30;;;;;;;0.90;0.90;;;6.70;99.90;;;;;;4918402;29;20202;-71
2023/03/04 15:26:00;;;;;;;3.72;1.05;;;6.60;99.90;;;;;;4918567;29;20217;-71
2023/03/04 15:28:32;;;;;;;0.50;0.50;;;6.60;99.90;;;;;;4917616;29;20214;-71
2023/03/04 15:30:58;;;;;;;0.82;0.82;;;6.50;99.90;;;;;;4915612;29;20242;-69
2023/03/04 15:33:25;;;;;;;0.68;0.47;;;6.50;99.90;;;;;;4917406;29;20206;-71
2023/03/04 15:35:56;;;;;;;0.60;0.60;;;6.50;99.90;;;;;;4908433;29;20322;-69
2023/03/04 15:38:24;;;;;;;3.40;0.73;;;6.50;99.90;;;;;;4915577;29;20211;-70
2023/03/04 15:40:51;;;;;;;1.55;0.63;;;6.50;99.90;;;;;;4911463;29;20234;-69
2023/03/04 15:43:20;;;;;;;6.72;0.95;;;6.40;99.90;;;;;;4915886;29;20218;-70
2023/03/04 15:45:48;;;;;;;1.48;0.63;;;6.40;99.90;;;;;;4914958;29;20218;-71
2023/03/04 15:48:17;;;;;;;0.40;0.40;;;6.30;99.90;;;;;;4917081;29;20211;-70
2023/03/04 15:50:48;;;;;;;1.00;1.00;;;6.30;99.90;;;;;;4919065;29;20708;-70
2023/03/04 15:53:19;;;;;;;6.22;0.65;;;7.80;99.90;;;;;;4915988;29;20214;-70
2023/03/04 15:55:47;;;;;;;6.93;1.40;;;6.20;99.90;;;;;;4920529;29;20243;-70
2023/03/04 15:58:15;;;;;;;0.30;0.30;;;6.20;99.90;;;;;;4915512;29;20652;-69
2023/03/04 16:00:41;;;;;;;1.75;0.85;;;6.10;99.90;;;;;;4916590;29;20234;-70
2023/03/04 16:03:14;;;;;;;1.20;1.10;;;6.10;99.90;;;;;;4913892;29;20302;-70
2023/03/04 16:05:41;;;;;;;0.82;0.73;;;6.00;99.90;;;;;;4917901;29;20216;-71
2023/03/04 16:08:11;;;;;;;4.15;0.70;;;6.00;99.90;;;;;;4916456;29;20314;-70
2023/03/04 16:10:39;;;;;;;4.13;3.72;;;6.00;99.90;;;;;;4915551;29;20231;-70
2023/03/04 16:13:06;;;;;;;0.52;0.52;;;5.90;99.90;;;;;;4914216;29;20280;-70
2023/03/04 16:15:33;;;;;;;6.93;1.13;;;5.90;99.90;;;;;;4916292;29;20242;-70
2023/03/04 16:17:59;;;;;;;0.77;0.73;;;5.90;99.90;;;;;;4915057;29;20747;-71
2023/03/04 16:20:29;;;;;;;0.45;0.45;;;5.90;99.90;;;;;;4914795;29;20227;-70
2023/03/04 16:22:58;;;;;;;0.88;0.88;;;5.90;99.90;;;;;;4914398;29;20210;-70
2023/03/04 16:25:25;;;;;;;0.82;0.82;;;5.90;99.90;;;;;;4910594;29;20203;-69
2023/03/04 16:27:55;;;;;;;0.35;0.35;;;5.80;99.90;;;;;;4912468;29;20207;-70
2023/03/04 16:30:24;;;;;;;0.95;0.77;;;5.80;99.90;;;;;;4912900;29;20723;-69
2023/03/04 16:32:50;;;;;;;1.15;0.55;;;5.80;99.90;;;;;;4915118;29;20210;-69
2023/03/04 16:35:19;;;;;;;20.40;1.20;;;5.80;99.90;;;;;;4908633;29;20826;-71
2023/03/04 16:37:46;;;;;;;1.50;1.50;;;5.70;99.90;;;;;;4907854;29;20219;-69
2023/03/04 16:40:15;;;;;;;3.95;1.50;;;5.70;99.90;;;;;;4914280;29;20227;-71
2023/03/04 16:42:42;;;;;;;1.20;0.70;;;5.70;99.90;;;;;;4916851;29;20226;-69
2023/03/04 16:45:16;;;;;;;4.32;0.93;;;5.70;99.90;;;;;;4915548;29;20212;-70
2023/03/04 16:47:43;;;;;;;0.28;0.28;;;5.70;99.90;;;;;;4904828;29;20290;-70
2023/03/04 16:50:12;;;;;;;1.05;0.90;;;5.60;99.90;;;;;;4913694;29;20230;-69
2023/03/04 16:52:39;;;;;;;2.47;1.10;;;5.70;99.90;;;;;;4909598;29;20211;-69
2023/03/04 16:55:10;;;;;;;0.30;0.30;;;5.60;99.90;;;;;;4902313;29;20250;-69
2023/03/04 16:57:36;;;;;;;2.83;0.98;;;5.60;99.90;;;;;;4910554;29;20596;-71
2023/03/04 17:00:06;;;;;;;2.88;1.50;;;5.60;99.90;;;;;;4914112;29;20242;-71
2023/03/04 17:02:35;;;;;;;1.15;1.15;;;5.50;99.90;;;;;;4914678;29;20210;-70
2023/03/04 17:05:02;;;;;;;2.25;0.57;;;5.50;99.90;;;;;;4913772;29;20258;-69
2023/03/04 17:07:29;;;;;;;2.83;0.85;;;5.50;99.90;;;;;;4912954;29;20238;-69
2023/03/04 17:09:56;;;;;;;3.30;1.75;;;5.50;99.90;;;;;;4912796;29;20226;-70
2023/03/04 17:12:22;;;;;;;0.70;0.70;;;5.50;99.90;;;;;;4913011;29;20211;-70
2023/03/04 17:14:49;;;;;;;1.42;0.75;;;5.50;99.90;;;;;;4914760;29;20226;-71
2023/03/04 17:17:16;;;;;;;1.67;1.58;;;5.40;99.90;;;;;;4914893;29;20670;-69
2023/03/04 17:19:44;;;;;;;1.08;1.08;;;5.40;99.90;;;;;;4914071;29;20420;-70
2023/03/04 17:22:10;;;;;;;22.45;1.65;;;5.40;99.90;;;;;;4913217;29;20282;-70
2023/03/04 17:24:37;;;;;;;0.60;0.30;;;5.40;99.90;;;;;;4913815;29;20236;-69
2023/03/04 17:27:04;;;;;;;0.80;0.80;;;5.40;99.90;;;;;;4913903;29;20541;-70
2023/03/04 17:29:31;;;;;;;1.42;1.42;;;5.40;99.90;;;;;;4916626;29;20247;-71
2023/03/04 17:31:57;;;;;;;0.80;0.80;;;5.30;99.90;;;;;;4914277;29;20210;-69
2023/03/04 17:34:24;;;;;;;1.30;1.30;;;5.30;99.90;;;;;;4916818;29;20233;-70
2023/03/04 17:36:52;;;;;;;0.30;0.30;;;5.30;99.90;;;;;;4915118;29;20286;-70
2023/03/04 17:39:19;;;;;;;6.68;2.45;;;5.30;99.90;;;;;;4914969;29;20227;-69
2023/03/04 17:41:46;;;;;;;0.30;0.30;;;5.30;99.90;;;;;;4913582;29;20310;-70
2023/03/04 17:44:14;;;;;;;2.42;0.63;;;5.30;99.90;;;;;;4913243;29;20214;-71
2023/03/04 17:46:41;;;;;;;0.40;0.40;;;5.30;99.90;;;;;;4915114;29;20629;-70
2023/03/04 17:49:10;;;;;;;8.27;1.45;;;5.30;99.90;;;;;;4909027;29;20227;-70
2023/03/04 17:51:39;;;;;;;2.47;0.90;;;5.20;99.90;;;;;;4910278;29;20262;-68
2023/03/04 17:54:08;;;;;;;2.05;0.77;;;5.20;99.90;;;;;;4906161;29;20218;-68
2023/03/04 17:56:38;;;;;;;0.70;0.70;;;5.20;99.90;;;;;;4913184;29;20249;-69
2023/03/04 17:59:07;;;;;;;0.85;0.85;;;5.20;99.90;;;;;;4913400;29;20717;-69
2023/03/04 18:01:34;;;;;;;0.70;0.70;;;5.10;99.90;;;;;;4916067;29;20226;-69
2023/03/04 18:04:00;;;;;;;2.05;1.00;;;5.10;99.90;;;;;;4912140;29;20218;-69
2023/03/04 18:06:27;;;;;;;6.55;1.95;;;5.10;99.90;;;;;;4912934;29;20294;-70
2023/03/04 18:08:54;;;;;;;0.50;0.50;;;5.10;99.90;;;;;;4908409;29;20218;-69
2023/03/04 18:11:24;;;;;;;0.50;0.50;;;5.10;99.90;;;;;;4919200;29;20222;-70
2023/03/04 18:13:52;;;;;;;0.52;0.30;;;5.10;99.90;;;;;;4912157;29;20208;-70
2023/03/04 18:16:22;;;;;;;0.50;0.50;;;5.10;99.90;;;;;;4915399;29;20227;-70
2023/03/04 18:18:48;;;;;;;1.35;1.20;;;5.10;99.90;;;;;;4918667;29;20218;-69